createdAt,value
2022-10-02T00:01:47.142Z,1020.40
2022-10-02T00:03:47.081Z,1020.34
2022-10-02T00:05:57.867Z,1020.41
2022-10-02T00:07:57.820Z,1020.41
2022-10-02T00:09:57.862Z,1020.50
2022-10-02T00:11:59.928Z,1020.51
2022-10-02T00:13:57.882Z,1020.68
2022-10-02T00:15:57.934Z,1020.62
2022-10-02T00:17:57.855Z,1020.62
2022-10-02T00:19:57.880Z,1020.50
2022-10-02T00:21:57.913Z,1020.42
2022-10-02T00:23:57.874Z,1020.38
2022-10-02T00:25:57.931Z,1020.38
2022-10-02T00:27:57.958Z,1020.38
2022-10-02T00:29:57.997Z,1020.44
2022-10-02T00:31:57.986Z,1020.42
2022-10-02T00:33:57.869Z,1020.45
2022-10-02T00:35:57.890Z,1020.45
2022-10-02T00:37:57.882Z,1020.57
2022-10-02T00:39:57.876Z,1020.59
2022-10-02T00:41:57.909Z,1020.68
2022-10-02T00:43:57.999Z,1020.75
2022-10-02T00:45:57.975Z,1020.75
2022-10-02T00:47:57.895Z,1020.80
2022-10-02T00:49:57.934Z,1020.73
2022-10-02T00:51:57.857Z,1020.74
2022-10-02T00:53:57.881Z,1020.77
2022-10-02T00:55:57.878Z,1020.77
2022-10-02T00:57:57.908Z,1020.90
2022-10-02T00:59:57.872Z,1020.98
2022-10-02T01:01:57.964Z,1020.95
2022-10-02T01:03:57.873Z,1020.95
2022-10-02T01:05:57.872Z,1020.93
2022-10-02T01:07:57.878Z,1020.93
2022-10-02T01:09:57.888Z,1020.81
2022-10-02T01:11:57.879Z,1020.87
2022-10-02T01:13:57.869Z,1020.87
2022-10-02T01:15:57.960Z,1020.80
2022-10-02T01:17:57.956Z,1020.81
2022-10-02T01:19:57.913Z,1020.76
2022-10-02T01:21:57.907Z,1020.81
2022-10-02T01:23:57.972Z,1020.81
2022-10-02T01:25:57.945Z,1020.86
2022-10-02T01:27:58.036Z,1020.76
2022-10-02T01:29:57.870Z,1020.66
2022-10-02T01:31:57.960Z,1020.66
2022-10-02T01:34:27.886Z,1020.75
2022-10-02T01:36:27.937Z,1020.74
2022-10-02T01:38:27.886Z,1020.69
2022-10-02T01:40:27.922Z,1020.69
2022-10-02T01:42:28.000Z,1020.69
2022-10-02T01:44:27.895Z,1020.73
2022-10-02T01:46:27.957Z,1020.74
2022-10-02T01:48:28.076Z,1020.74
2022-10-02T01:50:27.938Z,1020.90
2022-10-02T01:52:27.951Z,1020.90
2022-10-02T01:54:27.908Z,1020.80
2022-10-02T01:56:27.991Z,1020.69
2022-10-02T01:58:27.942Z,1020.81
2022-10-02T02:00:27.900Z,1020.81
2022-10-02T02:02:27.944Z,1020.97
2022-10-02T02:04:27.958Z,1020.79
2022-10-02T02:06:27.949Z,1021.03
2022-10-02T02:08:27.901Z,1020.95
2022-10-02T02:10:27.918Z,1020.95
2022-10-02T02:12:28.004Z,1020.89
2022-10-02T02:14:27.947Z,1020.91
2022-10-02T02:16:28.051Z,1020.97
2022-10-02T02:18:27.955Z,1020.97
2022-10-02T02:20:28.066Z,1020.97
2022-10-02T02:22:27.901Z,1020.88
2022-10-02T02:24:27.999Z,1020.94
2022-10-02T02:26:27.964Z,1020.91
2022-10-02T02:28:27.973Z,1020.91
2022-10-02T02:30:27.986Z,1020.91
2022-10-02T02:32:27.909Z,1020.91
2022-10-02T02:34:27.962Z,1020.95
2022-10-02T02:36:27.997Z,1021.03
2022-10-02T02:38:27.969Z,1021.03
2022-10-02T02:40:27.991Z,1021.05
2022-10-02T02:42:27.993Z,1021.02
2022-10-02T02:44:27.944Z,1021.00
2022-10-02T02:46:27.941Z,1021.02
2022-10-02T02:48:28.099Z,1021.02
2022-10-02T02:50:27.978Z,1021.08
2022-10-02T02:52:27.929Z,1021.08
2022-10-02T02:54:27.949Z,1021.08
2022-10-02T02:56:27.953Z,1021.07
2022-10-02T02:58:27.929Z,1021.07
2022-10-02T03:00:27.969Z,1021.03
2022-10-02T03:02:28.016Z,1020.97
2022-10-02T03:04:27.961Z,1021.00
2022-10-02T03:06:27.981Z,1021.00
2022-10-02T03:08:27.988Z,1020.99
2022-10-02T03:10:27.975Z,1020.99
2022-10-02T03:12:27.973Z,1021.09
2022-10-02T03:14:27.949Z,1021.03
2022-10-02T03:16:27.975Z,1021.03
2022-10-02T03:18:27.980Z,1021.04
2022-10-02T03:20:27.989Z,1021.04
2022-10-02T03:22:28.011Z,1020.98
2022-10-02T03:24:27.945Z,1020.94
2022-10-02T03:26:28.054Z,1020.94
2022-10-02T03:28:53.760Z,1020.93
2022-10-02T03:30:28.021Z,1020.93
2022-10-02T03:32:28.006Z,1021.00
2022-10-02T03:34:57.977Z,1021.00
2022-10-02T03:36:58.214Z,1020.99
2022-10-02T03:39:20.252Z,1020.99
2022-10-02T03:40:58.249Z,1020.95
2022-10-02T03:42:58.087Z,1020.92
2022-10-02T03:44:57.995Z,1020.94
2022-10-02T03:46:57.983Z,1020.95
2022-10-02T03:48:58.136Z,1020.95
2022-10-02T03:50:58.054Z,1020.95
2022-10-02T03:52:58.049Z,1021.03
2022-10-02T03:54:58.003Z,1021.02
2022-10-02T03:56:57.988Z,1021.04
2022-10-02T03:58:57.984Z,1021.04
2022-10-02T04:00:58.008Z,1020.97
2022-10-02T04:02:57.996Z,1021.04
2022-10-02T04:04:58.211Z,1021.01
2022-10-02T04:06:58.089Z,1021.01
2022-10-02T04:08:57.990Z,1021.04
2022-10-02T04:10:58.053Z,1021.01
2022-10-02T04:12:58.010Z,1021.00
2022-10-02T04:14:58.069Z,1021.01
2022-10-02T04:16:57.996Z,1021.01
2022-10-02T04:18:58.134Z,1021.04
2022-10-02T04:20:58.022Z,1021.06
2022-10-02T04:22:58.007Z,1021.04
2022-10-02T04:24:58.095Z,1021.07
2022-10-02T04:26:58.018Z,1021.07
2022-10-02T04:28:58.036Z,1021.16
2022-10-02T04:30:58.007Z,1021.16
2022-10-02T04:32:58.045Z,1021.16
2022-10-02T04:34:58.000Z,1021.16
2022-10-02T04:36:58.012Z,1021.14
2022-10-02T04:38:58.043Z,1021.15
2022-10-02T04:40:58.072Z,1021.14
2022-10-02T04:42:58.009Z,1021.14
2022-10-02T04:44:58.011Z,1021.14
2022-10-02T04:46:58.062Z,1021.18
2022-10-02T04:48:58.036Z,1021.19
2022-10-02T04:50:58.032Z,1021.09
2022-10-02T04:52:58.015Z,1021.06
2022-10-02T04:54:58.058Z,1021.06
2022-10-02T04:56:58.044Z,1021.08
2022-10-02T04:58:58.048Z,1021.05
2022-10-02T05:00:58.081Z,1021.04
2022-10-02T05:02:58.028Z,1021.04
2022-10-02T05:04:58.057Z,1021.13
2022-10-02T05:06:58.163Z,1021.16
2022-10-02T05:08:58.044Z,1021.18
2022-10-02T05:10:59.282Z,1021.18
2022-10-02T05:12:58.038Z,1021.18
2022-10-02T05:14:58.090Z,1021.18
2022-10-02T05:16:58.068Z,1021.17
2022-10-02T05:18:58.059Z,1021.25
2022-10-02T05:20:58.104Z,1021.22
2022-10-02T05:22:58.028Z,1021.22
2022-10-02T05:24:58.053Z,1021.22
2022-10-02T05:26:58.053Z,1021.29
2022-10-02T05:28:58.035Z,1021.21
2022-10-02T05:30:58.128Z,1021.27
2022-10-02T05:33:28.052Z,1021.27
2022-10-02T05:35:28.055Z,1021.27
2022-10-02T05:37:28.062Z,1021.24
2022-10-02T05:39:28.063Z,1021.22
2022-10-02T05:41:28.082Z,1021.22
2022-10-02T05:43:28.060Z,1021.16
2022-10-02T05:45:28.092Z,1021.19
2022-10-02T05:47:28.158Z,1021.15
2022-10-02T05:49:28.065Z,1021.16
2022-10-02T05:51:28.040Z,1021.16
2022-10-02T05:53:28.061Z,1021.16
2022-10-02T05:55:28.104Z,1021.17
2022-10-02T05:57:28.045Z,1021.23
2022-10-02T05:59:28.101Z,1021.17
2022-10-02T06:01:28.266Z,1021.17
2022-10-02T06:03:28.166Z,1021.24
2022-10-02T06:05:28.159Z,1021.29
2022-10-02T06:07:28.096Z,1021.34
2022-10-02T06:09:28.077Z,1021.34
2022-10-02T06:11:28.115Z,1021.37
2022-10-02T06:13:28.050Z,1021.34
2022-10-02T06:15:28.165Z,1021.41
2022-10-02T06:17:28.208Z,1021.40
2022-10-02T06:19:28.091Z,1021.40
2022-10-02T06:21:28.093Z,1021.43
2022-10-02T06:23:28.218Z,1021.46
2022-10-02T06:25:28.137Z,1021.48
2022-10-02T06:27:28.108Z,1021.47
2022-10-02T06:29:28.114Z,1021.47
2022-10-02T06:31:28.111Z,1021.53
2022-10-02T06:33:28.152Z,1021.53
2022-10-02T06:35:28.070Z,1021.59
2022-10-02T06:37:28.280Z,1021.59
2022-10-02T06:39:28.160Z,1021.60
2022-10-02T06:41:28.145Z,1021.55
2022-10-02T06:43:28.145Z,1021.45
2022-10-02T06:45:28.346Z,1021.45
2022-10-02T06:47:28.159Z,1021.45
2022-10-02T06:49:28.102Z,1021.41
2022-10-02T06:51:28.221Z,1021.38
2022-10-02T06:53:28.332Z,1021.33
2022-10-02T06:55:28.248Z,1021.26
2022-10-02T06:57:28.167Z,1021.26
2022-10-02T06:59:28.160Z,1021.23
2022-10-02T07:01:28.091Z,1021.26
2022-10-02T07:03:28.204Z,1021.26
2022-10-02T07:05:29.352Z,1021.26
2022-10-02T07:07:28.282Z,1021.22
2022-10-02T07:09:28.172Z,1021.20
2022-10-02T07:11:35.421Z,1021.17
2022-10-02T07:15:28.184Z,1021.17
2022-10-02T07:17:29.896Z,1021.15
2022-10-02T07:19:43.056Z,1021.21
2022-10-02T07:21:43.019Z,1021.19
2022-10-02T07:23:43.120Z,1021.17
2022-10-02T07:25:43.033Z,1021.17
2022-10-02T07:27:43.043Z,1021.19
2022-10-02T07:29:43.030Z,1021.19
2022-10-02T07:31:43.065Z,1020.98
2022-10-02T07:33:43.135Z,1020.95
2022-10-02T07:35:43.047Z,1020.95
2022-10-02T07:37:43.000Z,1020.95
2022-10-02T07:39:43.142Z,1020.93
2022-10-02T07:41:43.110Z,1020.93
2022-10-02T07:43:43.024Z,1021.02
2022-10-02T07:45:43.063Z,1020.92
2022-10-02T07:47:43.214Z,1020.92
2022-10-02T07:49:43.128Z,1020.80
2022-10-02T07:51:43.073Z,1020.80
2022-10-02T07:53:43.135Z,1020.80
2022-10-02T07:55:43.117Z,1020.92
2022-10-02T07:57:43.020Z,1020.92
2022-10-02T07:59:43.036Z,1020.85
2022-10-02T08:01:43.062Z,1020.70
2022-10-02T08:03:43.034Z,1020.68
2022-10-02T08:05:43.118Z,1020.68
2022-10-02T08:07:43.074Z,1020.84
2022-10-02T08:09:43.060Z,1020.85
2022-10-02T08:11:46.122Z,1020.74
2022-10-02T08:13:43.163Z,1020.73
2022-10-02T08:15:43.063Z,1020.73
2022-10-02T08:17:43.092Z,1020.72
2022-10-02T08:19:43.074Z,1020.69
2022-10-02T08:21:43.104Z,1020.70
2022-10-02T08:23:43.102Z,1020.70
2022-10-02T08:25:43.145Z,1020.70
2022-10-02T08:27:43.135Z,1020.72
2022-10-02T08:29:43.102Z,1020.63
2022-10-02T08:32:13.195Z,1020.75
2022-10-02T08:34:13.071Z,1020.75
2022-10-02T08:36:13.117Z,1020.75
2022-10-02T08:38:13.133Z,1020.65
2022-10-02T08:40:13.134Z,1020.66
2022-10-02T08:42:13.068Z,1020.57
2022-10-02T08:44:13.202Z,1020.57
2022-10-02T08:46:13.157Z,1020.66
2022-10-02T08:48:13.076Z,1020.55
2022-10-02T08:50:13.103Z,1020.60
2022-10-02T08:52:13.049Z,1020.51
2022-10-02T08:54:13.130Z,1020.51
2022-10-02T08:56:17.748Z,1020.38
2022-10-02T08:58:13.160Z,1020.51
2022-10-02T09:00:13.185Z,1020.44
2022-10-02T09:02:14.129Z,1020.40
2022-10-02T09:04:13.099Z,1020.40
2022-10-02T09:06:13.107Z,1020.57
2022-10-02T09:08:13.267Z,1020.32
2022-10-02T09:10:13.178Z,1020.47
2022-10-02T09:12:13.216Z,1020.47
2022-10-02T09:14:13.223Z,1020.48
2022-10-02T09:16:13.255Z,1020.48
2022-10-02T09:18:13.107Z,1020.35
2022-10-02T09:20:13.129Z,1020.32
2022-10-02T09:22:13.138Z,1020.32
2022-10-02T09:24:13.154Z,1020.25
2022-10-02T09:26:13.224Z,1020.23
2022-10-02T09:28:13.208Z,1020.15
2022-10-02T09:30:13.242Z,1019.96
2022-10-02T09:32:13.142Z,1019.96
2022-10-02T09:34:13.268Z,1020.02
2022-10-02T09:36:13.129Z,1020.13
2022-10-02T09:38:13.106Z,1020.12
2022-10-02T09:40:13.082Z,1020.12
2022-10-02T09:42:13.145Z,1019.91
2022-10-02T09:44:13.173Z,1019.92
2022-10-02T09:46:13.180Z,1019.87
2022-10-02T09:48:13.103Z,1019.78
2022-10-02T09:50:13.117Z,1019.78
2022-10-02T09:52:13.160Z,1019.59
2022-10-02T09:54:13.173Z,1019.66
2022-10-02T09:56:16.653Z,1019.66
2022-10-02T09:58:13.211Z,1019.71
2022-10-02T10:00:13.275Z,1019.71
2022-10-02T10:02:13.210Z,1019.83
2022-10-02T10:04:13.231Z,1019.85
2022-10-02T10:06:13.204Z,1020.02
2022-10-02T10:08:13.108Z,1020.02
2022-10-02T10:10:13.205Z,1019.90
2022-10-02T10:12:13.104Z,1019.83
2022-10-02T10:14:13.140Z,1019.91
2022-10-02T10:16:13.382Z,1020.09
2022-10-02T10:18:13.174Z,1020.09
2022-10-02T10:20:13.186Z,1020.02
2022-10-02T10:22:13.204Z,1020.14
2022-10-02T10:24:13.175Z,1020.16
2022-10-02T10:26:13.216Z,1020.12
2022-10-02T10:28:13.182Z,1020.12
2022-10-02T10:30:13.122Z,1020.16
2022-10-02T10:32:43.229Z,1020.19
2022-10-02T10:34:43.168Z,1020.23
2022-10-02T10:36:46.592Z,1020.23
2022-10-02T10:38:43.181Z,1020.23
2022-10-02T10:40:43.237Z,1020.23
2022-10-02T10:43:06.026Z,1020.27
2022-10-02T10:44:43.239Z,1020.34
2022-10-02T10:46:43.233Z,1020.20
2022-10-02T10:48:48.507Z,1020.34
2022-10-02T10:50:43.257Z,1020.34
2022-10-02T10:52:43.218Z,1020.29
2022-10-02T10:54:43.260Z,1020.33
2022-10-02T10:56:43.215Z,1020.39
2022-10-02T10:58:43.182Z,1020.35
2022-10-02T11:00:43.350Z,1020.35
2022-10-02T11:02:43.317Z,1020.29
2022-10-02T11:04:43.309Z,1020.34
2022-10-02T11:06:46.068Z,1020.34
2022-10-02T11:08:43.348Z,1020.34
2022-10-02T11:10:43.187Z,1020.31
2022-10-02T11:12:43.286Z,1020.25
2022-10-02T11:14:43.242Z,1020.26
2022-10-02T11:16:43.384Z,1020.26
2022-10-02T11:18:43.184Z,1020.26
2022-10-02T11:20:43.203Z,1020.09
2022-10-02T11:22:43.258Z,1020.22
2022-10-02T11:24:43.216Z,1020.17
2022-10-02T11:26:43.217Z,1020.39
2022-10-02T11:28:43.274Z,1020.39
2022-10-02T11:30:43.304Z,1020.44
2022-10-02T11:32:43.266Z,1020.37
2022-10-02T11:34:43.415Z,1020.38
2022-10-02T11:36:43.352Z,1020.38
2022-10-02T11:38:43.306Z,1020.40
2022-10-02T11:40:43.234Z,1020.30
2022-10-02T11:42:43.197Z,1020.26
2022-10-02T11:44:43.302Z,1020.23
2022-10-02T11:46:44.356Z,1020.23
2022-10-02T11:48:43.284Z,1020.27
2022-10-02T11:50:43.317Z,1020.35
2022-10-02T11:52:47.970Z,1020.42
2022-10-02T11:54:43.222Z,1020.39
2022-10-02T11:56:43.265Z,1020.39
2022-10-02T11:58:43.284Z,1020.39
2022-10-02T12:00:43.264Z,1020.44
2022-10-02T12:02:43.359Z,1020.30
2022-10-02T12:04:43.334Z,1020.34
2022-10-02T12:06:43.224Z,1020.34
2022-10-02T12:08:43.276Z,1020.34
2022-10-02T12:10:43.235Z,1020.35
2022-10-02T12:12:43.277Z,1020.28
2022-10-02T12:14:43.298Z,1020.28
2022-10-02T12:16:43.376Z,1020.25
2022-10-02T12:18:43.207Z,1020.20
2022-10-02T12:20:43.352Z,1020.18
2022-10-02T12:22:43.257Z,1020.15
2022-10-02T12:24:43.250Z,1020.15
2022-10-02T12:26:43.252Z,1020.14
2022-10-02T12:28:43.320Z,1020.16
2022-10-02T12:31:13.313Z,1020.24
2022-10-02T12:33:13.298Z,1020.33
2022-10-02T12:35:13.296Z,1020.33
2022-10-02T12:37:13.355Z,1020.22
2022-10-02T12:39:13.255Z,1020.22
2022-10-02T12:41:13.246Z,1020.29
2022-10-02T12:43:13.330Z,1020.29
2022-10-02T12:45:13.265Z,1020.26
2022-10-02T12:47:13.333Z,1020.22
2022-10-02T12:49:13.361Z,1020.23
2022-10-02T12:51:13.319Z,1020.19
2022-10-02T12:53:13.243Z,1020.19
2022-10-02T12:55:13.248Z,1020.21
2022-10-02T12:57:13.219Z,1020.23
2022-10-02T12:59:13.285Z,1020.16
2022-10-02T13:01:13.336Z,1020.12
2022-10-02T13:03:13.362Z,1020.12
2022-10-02T13:05:13.372Z,1020.01
2022-10-02T13:07:13.317Z,1019.98
2022-10-02T13:09:13.294Z,1019.94
2022-10-02T13:11:13.250Z,1019.94
2022-10-02T13:13:13.311Z,1019.92
2022-10-02T13:15:13.324Z,1020.00
2022-10-02T13:17:13.344Z,1020.27
2022-10-02T13:19:13.426Z,1020.27
2022-10-02T13:21:13.362Z,1020.27
2022-10-02T13:23:13.398Z,1020.57
2022-10-02T13:25:13.303Z,1020.54
2022-10-02T13:27:13.298Z,1020.68
2022-10-02T13:29:13.329Z,1020.58
2022-10-02T13:31:13.309Z,1020.58
2022-10-02T13:33:13.332Z,1020.43
2022-10-02T13:35:13.386Z,1020.35
2022-10-02T13:37:13.368Z,1020.22
2022-10-02T13:39:13.315Z,1020.22
2022-10-02T13:41:13.355Z,1020.23
2022-10-02T13:43:13.370Z,1020.23
2022-10-02T13:45:13.417Z,1020.32
2022-10-02T13:47:13.485Z,1020.45
2022-10-02T13:49:13.393Z,1020.45
2022-10-02T13:51:13.484Z,1020.48
2022-10-02T13:53:13.367Z,1020.52
2022-10-02T13:55:13.340Z,1020.60
2022-10-02T13:57:13.422Z,1020.57
2022-10-02T13:59:13.414Z,1020.57
2022-10-02T14:01:13.430Z,1020.57
2022-10-02T14:03:13.361Z,1020.39
2022-10-02T14:05:13.412Z,1020.52
2022-10-02T14:07:13.412Z,1020.42
2022-10-02T14:09:13.432Z,1020.42
2022-10-02T14:11:14.968Z,1020.36
2022-10-02T14:13:14.404Z,1020.42
2022-10-02T14:15:13.408Z,1020.38
2022-10-02T14:17:13.420Z,1020.38
2022-10-02T14:19:13.368Z,1020.28
2022-10-02T14:21:13.774Z,1020.29
2022-10-02T14:23:13.503Z,1020.27
2022-10-02T14:25:27.563Z,1020.38
2022-10-02T14:27:27.593Z,1020.38
2022-10-02T14:29:27.553Z,1020.38
2022-10-02T14:31:27.656Z,1020.34
2022-10-02T14:33:27.596Z,1020.20
2022-10-02T14:35:27.616Z,1020.18
2022-10-02T14:37:27.609Z,1020.18
2022-10-02T14:39:27.505Z,1020.16
2022-10-02T14:41:27.550Z,1020.16
2022-10-02T14:43:27.595Z,1020.23
2022-10-02T14:45:27.635Z,1020.23
2022-10-02T14:47:27.623Z,1020.41
2022-10-02T14:49:27.741Z,1020.37
2022-10-02T14:51:27.629Z,1020.36
2022-10-02T14:53:27.624Z,1020.24
2022-10-02T14:55:27.546Z,1020.24
2022-10-02T14:57:27.608Z,1020.13
2022-10-02T14:59:27.590Z,1020.19
2022-10-02T15:01:27.639Z,1020.32
2022-10-02T15:03:27.603Z,1020.31
2022-10-02T15:05:27.682Z,1020.31
2022-10-02T15:07:27.643Z,1020.19
2022-10-02T15:09:27.671Z,1020.11
2022-10-02T15:11:27.599Z,1020.03
2022-10-02T15:13:27.611Z,1020.03
2022-10-02T15:15:28.682Z,1020.03
2022-10-02T15:17:27.643Z,1020.03
2022-10-02T15:19:27.648Z,1020.05
2022-10-02T15:21:27.688Z,1020.05
2022-10-02T15:23:27.561Z,1020.05
2022-10-02T15:25:27.738Z,1020.13
2022-10-02T15:27:27.584Z,1020.14
2022-10-02T15:29:27.576Z,1020.15
2022-10-02T15:31:57.727Z,1020.18
2022-10-02T15:33:57.639Z,1020.14
2022-10-02T15:35:57.643Z,1020.09
2022-10-02T15:37:57.608Z,1020.09
2022-10-02T15:39:57.724Z,1020.09
2022-10-02T15:41:57.688Z,1020.23
2022-10-02T15:43:57.632Z,1020.38
2022-10-02T15:45:57.746Z,1020.38
2022-10-02T15:47:57.673Z,1020.59
2022-10-02T15:49:57.683Z,1020.70
2022-10-02T15:51:57.714Z,1020.73
2022-10-02T15:53:57.840Z,1020.70
2022-10-02T15:55:57.895Z,1020.70
2022-10-02T15:57:57.647Z,1020.58
2022-10-02T15:59:57.636Z,1020.57
2022-10-02T16:01:57.711Z,1020.57
2022-10-02T16:03:57.646Z,1020.67
2022-10-02T16:05:57.692Z,1020.67
2022-10-02T16:07:57.681Z,1020.70
2022-10-02T16:09:57.689Z,1020.75
2022-10-02T16:11:57.758Z,1020.79
2022-10-02T16:13:57.624Z,1020.79
2022-10-02T16:15:57.704Z,1020.93
2022-10-02T16:17:57.808Z,1020.98
2022-10-02T16:19:57.694Z,1020.97
2022-10-02T16:21:57.712Z,1021.05
2022-10-02T16:23:57.637Z,1021.05
2022-10-02T16:25:57.705Z,1021.09
2022-10-02T16:27:57.680Z,1021.08
2022-10-02T16:29:57.619Z,1021.28
2022-10-02T16:31:57.715Z,1021.37
2022-10-02T16:33:57.669Z,1021.37
2022-10-02T16:35:57.693Z,1021.38
2022-10-02T16:37:57.706Z,1021.35
2022-10-02T16:39:57.691Z,1021.28
2022-10-02T16:41:58.741Z,1021.28
2022-10-02T16:43:57.660Z,1021.28
2022-10-02T16:45:57.685Z,1021.35
2022-10-02T16:47:57.728Z,1021.29
2022-10-02T16:49:57.675Z,1021.25
2022-10-02T16:51:59.634Z,1021.25
2022-10-02T16:53:57.759Z,1021.19
2022-10-02T16:55:57.716Z,1021.22
2022-10-02T16:57:57.627Z,1021.25
2022-10-02T16:59:57.647Z,1021.26
2022-10-02T17:02:17.059Z,1021.26
2022-10-02T17:03:59.057Z,1021.30
2022-10-02T17:05:58.983Z,1021.34
2022-10-02T17:07:57.851Z,1021.42
2022-10-02T17:09:57.865Z,1021.45
2022-10-02T17:11:57.938Z,1021.45
2022-10-02T17:13:58.173Z,1021.53
2022-10-02T17:15:59.078Z,1021.60
2022-10-02T17:17:57.954Z,1021.66
2022-10-02T17:19:57.976Z,1021.66
2022-10-02T17:21:57.982Z,1021.69
2022-10-02T17:23:58.067Z,1021.69
2022-10-02T17:25:57.959Z,1021.76
2022-10-02T17:27:57.916Z,1021.81
2022-10-02T17:29:58.025Z,1021.81
2022-10-02T17:32:28.246Z,1021.81
2022-10-02T17:34:27.892Z,1021.84
2022-10-02T17:36:27.948Z,1021.89
2022-10-02T17:38:27.879Z,1021.97
2022-10-02T17:40:28.926Z,1021.97
2022-10-02T17:42:28.467Z,1022.04
2022-10-02T17:44:27.949Z,1022.15
2022-10-02T17:46:28.925Z,1022.18
2022-10-02T17:48:28.632Z,1022.18
2022-10-02T17:50:27.979Z,1022.19
2022-10-02T17:52:27.951Z,1022.22
2022-10-02T17:54:27.838Z,1022.20
2022-10-02T17:56:27.957Z,1022.26
2022-10-02T17:58:28.012Z,1022.26
2022-10-02T18:00:29.401Z,1022.41
2022-10-02T18:02:28.696Z,1022.50
2022-10-02T18:04:27.878Z,1022.50
2022-10-02T18:06:27.759Z,1022.63
2022-10-02T18:08:30.463Z,1022.63
2022-10-02T18:10:27.790Z,1022.61
2022-10-02T18:12:27.808Z,1022.63
2022-10-02T18:14:27.698Z,1022.66
2022-10-02T18:16:27.862Z,1022.66
2022-10-02T18:18:27.692Z,1022.65
2022-10-02T18:20:28.646Z,1022.57
2022-10-02T18:22:28.198Z,1022.52
2022-10-02T18:24:27.652Z,1022.45
2022-10-02T18:26:27.924Z,1022.45
2022-10-02T18:28:27.837Z,1022.44
2022-10-02T18:30:27.696Z,1022.37
2022-10-02T18:32:27.747Z,1022.33
2022-10-02T18:34:27.796Z,1022.40
2022-10-02T18:36:28.802Z,1022.40
2022-10-02T18:38:27.663Z,1022.46
2022-10-02T18:40:27.758Z,1022.38
2022-10-02T18:42:27.723Z,1022.34
2022-10-02T18:44:27.658Z,1022.34
2022-10-02T18:46:27.753Z,1022.34
2022-10-02T18:48:27.739Z,1022.45
2022-10-02T18:50:27.748Z,1022.48
2022-10-02T18:52:27.840Z,1022.40
2022-10-02T18:54:27.809Z,1022.40
2022-10-02T18:56:27.858Z,1022.29
2022-10-02T18:58:27.737Z,1022.34
2022-10-02T19:00:27.724Z,1022.42
2022-10-02T19:02:27.856Z,1022.49
2022-10-02T19:04:27.771Z,1022.49
2022-10-02T19:06:27.772Z,1022.43
2022-10-02T19:08:27.842Z,1022.43
2022-10-02T19:10:27.769Z,1022.48
2022-10-02T19:12:27.834Z,1022.58
2022-10-02T19:14:27.819Z,1022.58
2022-10-02T19:16:27.766Z,1022.74
2022-10-02T19:18:27.668Z,1022.79
2022-10-02T19:20:27.753Z,1022.70
2022-10-02T19:22:27.799Z,1022.70
2022-10-02T19:24:27.744Z,1022.66
2022-10-02T19:26:27.821Z,1022.66
2022-10-02T19:28:27.843Z,1022.73
2022-10-02T19:30:57.876Z,1022.79
2022-10-02T19:32:57.701Z,1022.82
2022-10-02T19:34:57.747Z,1022.90
2022-10-02T19:36:57.768Z,1022.90
2022-10-02T19:38:57.838Z,1022.92
2022-10-02T19:40:57.797Z,1022.94
2022-10-02T19:42:57.824Z,1022.96
2022-10-02T19:44:57.873Z,1022.96
2022-10-02T19:46:57.741Z,1022.97
2022-10-02T19:48:57.883Z,1023.00
2022-10-02T19:50:57.748Z,1023.09
2022-10-02T19:52:57.795Z,1023.13
2022-10-02T19:54:57.822Z,1023.13
2022-10-02T19:56:57.707Z,1023.20
2022-10-02T19:58:57.738Z,1023.29
2022-10-02T20:00:57.807Z,1023.42
2022-10-02T20:02:57.744Z,1023.48
2022-10-02T20:04:57.757Z,1023.48
2022-10-02T20:06:57.736Z,1023.48
2022-10-02T20:08:57.805Z,1023.50
2022-10-02T20:10:57.798Z,1023.52
2022-10-02T20:12:57.832Z,1023.56
2022-10-02T20:14:57.861Z,1023.56
2022-10-02T20:16:57.769Z,1023.58
2022-10-02T20:18:57.870Z,1023.58
2022-10-02T20:20:57.758Z,1023.63
2022-10-02T20:22:57.743Z,1023.63
2022-10-02T20:24:57.732Z,1023.67
2022-10-02T20:26:57.732Z,1023.73
2022-10-02T20:28:57.888Z,1023.83
2022-10-02T20:30:57.876Z,1023.87
2022-10-02T20:32:57.770Z,1023.87
2022-10-02T20:34:57.722Z,1023.89
2022-10-02T20:36:57.847Z,1023.85
2022-10-02T20:38:57.886Z,1023.81
2022-10-02T20:40:57.828Z,1023.83
2022-10-02T20:42:57.874Z,1023.83
2022-10-02T20:44:57.772Z,1023.83
2022-10-02T20:46:57.895Z,1023.83
2022-10-02T20:49:07.468Z,1023.93
2022-10-02T20:50:57.798Z,1023.93
2022-10-02T20:52:57.774Z,1023.97
2022-10-02T20:54:57.783Z,1023.99
2022-10-02T20:56:57.867Z,1024.08
2022-10-02T20:58:57.873Z,1024.12
2022-10-02T21:00:57.830Z,1024.12
2022-10-02T21:02:57.936Z,1024.17
2022-10-02T21:04:57.880Z,1024.22
2022-10-02T21:06:57.803Z,1024.24
2022-10-02T21:08:57.850Z,1024.24
2022-10-02T21:10:57.812Z,1024.24
2022-10-02T21:12:57.894Z,1024.23
2022-10-02T21:14:57.873Z,1024.33
2022-10-02T21:16:57.962Z,1024.37
2022-10-02T21:18:57.803Z,1024.37
2022-10-02T21:20:57.823Z,1024.46
2022-10-02T21:22:57.871Z,1024.46
2022-10-02T21:27:27.939Z,1024.49
2022-10-02T21:29:27.945Z,1024.49
2022-10-02T21:31:27.846Z,1024.65
2022-10-02T21:33:27.943Z,1024.67
2022-10-02T21:35:27.908Z,1024.75
2022-10-02T21:37:27.837Z,1024.78
2022-10-02T21:39:27.902Z,1024.78
2022-10-02T21:41:27.821Z,1024.85
2022-10-02T21:45:10.384Z,1024.90
2022-10-02T21:47:10.286Z,1024.90
2022-10-02T21:49:10.296Z,1024.90
2022-10-02T21:51:10.335Z,1024.92
2022-10-02T21:53:10.268Z,1024.89
2022-10-02T21:55:10.225Z,1024.91
2022-10-02T21:57:10.282Z,1024.91
2022-10-02T21:59:10.327Z,1024.91
2022-10-02T22:01:10.365Z,1024.86
2022-10-02T22:03:10.327Z,1024.82
2022-10-02T22:05:10.264Z,1024.84
2022-10-02T22:07:10.225Z,1024.84
2022-10-02T22:09:10.265Z,1024.84
2022-10-02T22:11:10.309Z,1024.84
2022-10-02T22:13:10.292Z,1024.88
2022-10-02T22:15:41.363Z,1024.91
2022-10-02T22:17:41.341Z,1024.95
2022-10-02T22:19:40.318Z,1024.95
2022-10-02T22:21:40.562Z,1024.97
2022-10-02T22:23:40.332Z,1025.00
2022-10-02T22:25:40.320Z,1025.00
2022-10-02T22:27:41.310Z,1025.02
2022-10-02T22:29:41.364Z,1025.02
2022-10-02T22:31:41.732Z,1025.01
2022-10-02T22:33:40.339Z,1025.05
2022-10-02T22:35:40.391Z,1025.04
2022-10-02T22:37:40.270Z,1025.08
2022-10-02T22:39:40.344Z,1025.08
2022-10-02T22:41:40.548Z,1025.09
2022-10-02T22:43:40.299Z,1025.14
2022-10-02T22:45:40.419Z,1025.15
2022-10-02T22:47:40.275Z,1025.15
2022-10-02T22:49:41.280Z,1025.15
2022-10-02T22:51:40.744Z,1025.21
2022-10-02T22:53:40.436Z,1025.26
2022-10-02T22:55:40.326Z,1025.22
2022-10-02T22:57:41.338Z,1025.22
2022-10-02T22:59:41.342Z,1025.19
2022-10-02T23:01:40.539Z,1025.22
2022-10-02T23:03:40.382Z,1025.22
2022-10-02T23:05:40.362Z,1025.26
2022-10-02T23:07:40.392Z,1025.26
2022-10-02T23:09:40.325Z,1025.26
2022-10-02T23:11:40.550Z,1025.32
2022-10-02T23:13:41.370Z,1025.33
2022-10-02T23:15:40.405Z,1025.31
2022-10-02T23:17:40.353Z,1025.31
2022-10-02T23:19:40.418Z,1025.35
2022-10-02T23:21:44.671Z,1025.43
2022-10-02T23:23:40.325Z,1025.41
2022-10-02T23:25:41.324Z,1025.41
2022-10-02T23:27:40.371Z,1025.43
2022-10-02T23:29:40.367Z,1025.43
2022-10-02T23:31:40.728Z,1025.43
2022-10-02T23:33:40.269Z,1025.47
2022-10-02T23:35:40.935Z,1025.47
2022-10-02T23:37:40.356Z,1025.53
2022-10-02T23:39:40.271Z,1025.53
2022-10-02T23:41:41.914Z,1025.58
2022-10-02T23:43:40.303Z,1025.58
2022-10-02T23:45:40.364Z,1025.58
2022-10-02T23:47:40.464Z,1025.65
2022-10-02T23:49:41.377Z,1025.64
2022-10-02T23:51:40.705Z,1025.68
2022-10-02T23:53:41.330Z,1025.68
2022-10-02T23:55:40.387Z,1025.68
2022-10-02T23:57:40.319Z,1025.80
2022-10-02T23:59:40.297Z,1025.86
